createdAt,value
2017-09-30T00:03:22.221Z,16.30
2017-09-30T00:08:23.244Z,17.17
2017-09-30T00:13:24.288Z,18.10
2017-09-30T00:18:26.066Z,19.33
2017-09-30T00:23:27.850Z,18.30
2017-09-30T00:28:28.878Z,18.57
2017-09-30T00:33:29.933Z,17.37
2017-09-30T00:38:30.993Z,17.23
2017-09-30T00:43:32.054Z,16.60
2017-09-30T00:48:33.138Z,20.73
2017-09-30T00:53:34.261Z,18.13
2017-09-30T00:58:35.314Z,19.40
2017-09-30T01:03:36.346Z,21.23
2017-09-30T01:08:37.396Z,19.83
2017-09-30T01:13:38.428Z,18.80
2017-09-30T01:18:39.616Z,19.50
2017-09-30T01:23:40.816Z,18.67
2017-09-30T01:28:42.624Z,19.90
2017-09-30T01:33:43.678Z,20.40
2017-09-30T01:38:44.717Z,20.10
2017-09-30T01:43:45.816Z,21.10
2017-09-30T01:48:46.866Z,20.50
2017-09-30T01:53:47.918Z,20.77
2017-09-30T01:58:48.957Z,20.40
2017-09-30T02:03:50.753Z,20.77
2017-09-30T02:08:51.801Z,22.47
2017-09-30T02:13:52.871Z,25.63
2017-09-30T02:18:53.916Z,22.33
2017-09-30T02:23:55.716Z,21.90
2017-09-30T02:28:56.758Z,20.80
2017-09-30T02:33:57.805Z,20.97
2017-09-30T02:38:58.840Z,22.20
2017-09-30T02:43:59.880Z,21.80
2017-09-30T02:49:00.914Z,22.77
2017-09-30T02:54:01.986Z,22.50
2017-09-30T02:59:03.029Z,24.97
2017-09-30T03:04:04.065Z,25.33
2017-09-30T03:09:05.100Z,23.57
2017-09-30T03:14:06.881Z,24.33
2017-09-30T03:19:08.667Z,23.90
2017-09-30T03:24:09.701Z,28.17
2017-09-30T03:29:10.859Z,25.90
2017-09-30T03:34:12.087Z,26.57
2017-09-30T03:39:13.985Z,29.27
2017-09-30T03:44:15.121Z,26.20
2017-09-30T03:49:16.286Z,25.60
2017-09-30T03:54:17.403Z,27.83
2017-09-30T03:59:18.550Z,25.63
2017-09-30T04:04:19.672Z,25.13
2017-09-30T04:09:20.799Z,26.77
2017-09-30T04:14:21.881Z,28.73
2017-09-30T04:19:22.999Z,29.93
2017-09-30T04:24:24.092Z,27.53
2017-09-30T04:29:25.169Z,24.83
2017-09-30T04:34:26.442Z,29.93
2017-09-30T04:39:27.558Z,29.80
2017-09-30T04:44:28.658Z,29.03
2017-09-30T04:49:29.781Z,23.33
2017-09-30T04:54:30.926Z,25.87
2017-09-30T04:59:32.029Z,26.70
2017-09-30T05:04:33.106Z,29.23
2017-09-30T05:09:35.931Z,29.00
2017-09-30T05:14:37.067Z,27.00
2017-09-30T05:19:38.164Z,25.27
2017-09-30T05:24:39.308Z,26.37
2017-09-30T05:29:41.161Z,26.57
2017-09-30T05:34:42.268Z,26.87
2017-09-30T05:39:44.124Z,25.63
2017-09-30T05:44:45.260Z,24.50
2017-09-30T05:49:46.395Z,28.70
2017-09-30T05:54:47.552Z,26.63
2017-09-30T05:59:48.706Z,28.27
2017-09-30T06:04:50.618Z,25.23
2017-09-30T06:09:51.734Z,26.97
2017-09-30T06:14:55.606Z,25.23
2017-09-30T06:19:58.651Z,22.90
2017-09-30T06:24:59.926Z,24.70
2017-09-30T06:30:01.078Z,26.37
2017-09-30T06:35:02.242Z,22.30
2017-09-30T06:40:03.342Z,21.60
2017-09-30T06:45:04.385Z,25.10
2017-09-30T06:50:05.689Z,23.37
2017-09-30T06:55:06.926Z,20.73
2017-09-30T07:00:08.033Z,20.20
2017-09-30T07:05:09.088Z,19.43
2017-09-30T07:10:10.206Z,19.07
2017-09-30T07:15:11.981Z,17.63
2017-09-30T07:20:13.033Z,18.17
2017-09-30T07:25:14.093Z,19.23
2017-09-30T07:30:15.151Z,19.37
2017-09-30T07:35:16.197Z,17.73
2017-09-30T07:40:17.245Z,15.57
2017-09-30T07:45:18.305Z,16.97
2017-09-30T07:50:19.377Z,16.20
2017-09-30T07:55:20.421Z,16.47
2017-09-30T08:00:21.486Z,14.77
2017-09-30T08:05:22.536Z,14.93
2017-09-30T08:10:23.598Z,14.53
2017-09-30T08:15:24.633Z,15.33
2017-09-30T08:20:25.760Z,15.00
2017-09-30T08:25:26.813Z,14.83
2017-09-30T08:30:28.653Z,15.10
2017-09-30T08:35:29.705Z,16.10
2017-09-30T08:40:30.757Z,15.80
2017-09-30T08:45:31.853Z,14.43
2017-09-30T08:50:33.637Z,15.47
2017-09-30T08:55:35.500Z,15.00
2017-09-30T09:00:37.377Z,15.07
2017-09-30T09:05:39.157Z,14.30
2017-09-30T09:10:40.953Z,16.83
2017-09-30T09:15:42.005Z,14.67
2017-09-30T09:20:43.125Z,14.83
2017-09-30T09:25:44.393Z,15.60
2017-09-30T09:30:45.458Z,14.83
2017-09-30T09:35:46.526Z,19.97
2017-09-30T09:40:48.383Z,18.27
2017-09-30T09:45:49.430Z,19.77
2017-09-30T09:50:50.481Z,20.80
2017-09-30T09:55:51.566Z,21.67
2017-09-30T10:00:53.396Z,18.70
2017-09-30T10:05:54.454Z,18.70
2017-09-30T10:10:55.501Z,17.03
2017-09-30T10:15:56.580Z,18.10
2017-09-30T10:20:57.669Z,16.23
2017-09-30T10:25:58.719Z,15.87
2017-09-30T10:30:59.767Z,17.70
2017-09-30T10:36:00.812Z,18.00
2017-09-30T10:41:01.867Z,21.60
2017-09-30T10:46:02.938Z,20.50
2017-09-30T10:51:04.037Z,18.47
2017-09-30T10:56:05.296Z,16.33
2017-09-30T11:01:07.112Z,15.67
2017-09-30T11:06:08.156Z,19.10
2017-09-30T11:11:09.234Z,15.87
2017-09-30T11:16:10.297Z,15.20
2017-09-30T11:21:11.347Z,15.30
2017-09-30T11:26:12.413Z,12.93
2017-09-30T11:31:13.475Z,13.37
2017-09-30T11:36:14.532Z,14.00
2017-09-30T11:41:15.575Z,14.53
2017-09-30T11:46:16.641Z,12.33
2017-09-30T11:51:17.712Z,13.10
2017-09-30T11:56:18.762Z,12.80
2017-09-30T12:01:19.815Z,11.87
2017-09-30T12:06:21.610Z,13.03
2017-09-30T12:11:23.436Z,13.17
2017-09-30T12:16:24.513Z,12.13
2017-09-30T12:21:25.593Z,10.80
2017-09-30T12:26:26.693Z,12.63
2017-09-30T12:31:28.481Z,11.93
2017-09-30T12:36:29.586Z,11.63
2017-09-30T12:41:30.641Z,11.10
2017-09-30T12:46:31.838Z,12.40
2017-09-30T12:51:32.943Z,10.50
2017-09-30T12:56:34.016Z,9.90
2017-09-30T13:01:35.080Z,9.90
2017-09-30T13:06:36.137Z,9.83
2017-09-30T13:11:37.184Z,10.70
2017-09-30T13:16:38.261Z,9.50
2017-09-30T13:21:39.326Z,8.20
2017-09-30T13:26:40.382Z,9.73
2017-09-30T13:31:41.460Z,9.47
2017-09-30T13:36:42.559Z,8.57
2017-09-30T13:41:43.622Z,9.80
2017-09-30T13:46:44.694Z,11.67
2017-09-30T13:51:45.882Z,8.53
2017-09-30T13:56:46.997Z,8.27
2017-09-30T14:01:48.091Z,7.90
2017-09-30T14:06:49.162Z,8.90
2017-09-30T14:11:50.274Z,8.43
2017-09-30T14:16:51.401Z,9.37
2017-09-30T14:21:52.448Z,10.83
2017-09-30T14:26:53.517Z,11.20
2017-09-30T14:31:55.340Z,7.47
2017-09-30T14:36:56.438Z,8.57
2017-09-30T14:41:57.562Z,7.93
2017-09-30T14:46:58.617Z,9.17
2017-09-30T14:51:59.731Z,9.10
2017-09-30T14:57:01.551Z,7.60
2017-09-30T15:02:02.622Z,7.83
2017-09-30T15:07:05.446Z,9.50
2017-09-30T15:12:06.531Z,7.63
2017-09-30T15:17:08.351Z,9.00
2017-09-30T15:22:09.420Z,8.23
2017-09-30T15:27:10.566Z,8.07
2017-09-30T15:32:13.353Z,11.53
2017-09-30T15:37:14.429Z,8.07
2017-09-30T15:42:16.209Z,7.77
2017-09-30T15:47:17.317Z,17.23
2017-09-30T15:52:18.412Z,8.33
2017-09-30T15:57:20.279Z,8.27
2017-09-30T16:02:21.592Z,7.70
2017-09-30T16:07:22.778Z,9.90
2017-09-30T16:12:24.651Z,8.80
2017-09-30T16:17:26.447Z,8.03
2017-09-30T16:22:27.532Z,8.80
2017-09-30T16:27:28.598Z,7.53
2017-09-30T16:32:29.679Z,9.57
2017-09-30T16:37:30.759Z,7.33
2017-09-30T16:42:32.582Z,7.37
2017-09-30T16:47:34.431Z,7.50
2017-09-30T16:52:35.607Z,7.93
2017-09-30T16:57:36.701Z,8.30
2017-09-30T17:02:37.767Z,7.43
2017-09-30T17:07:38.838Z,10.50
2017-09-30T17:12:40.639Z,8.57
2017-09-30T17:17:41.762Z,12.33
2017-09-30T17:22:42.831Z,9.70
2017-09-30T17:27:44.636Z,10.50
2017-09-30T17:32:45.693Z,12.20
2017-09-30T17:37:46.732Z,10.07
2017-09-30T17:42:49.089Z,9.70
2017-09-30T17:47:50.165Z,10.17
2017-09-30T17:52:51.973Z,11.73
2017-09-30T17:57:53.025Z,15.40
2017-09-30T18:02:54.063Z,13.90
2017-09-30T18:07:55.197Z,14.00
2017-09-30T18:12:56.258Z,14.17
2017-09-30T18:17:57.292Z,11.07
2017-09-30T18:22:58.325Z,12.47
2017-09-30T18:27:59.371Z,11.40
2017-09-30T18:33:01.145Z,10.70
2017-09-30T18:38:02.953Z,12.17
2017-09-30T18:43:04.024Z,11.33
2017-09-30T18:48:06.092Z,10.97
2017-09-30T18:53:07.385Z,9.57
2017-09-30T18:58:08.457Z,17.13
2017-09-30T19:03:09.607Z,13.60
2017-09-30T19:08:10.673Z,12.33
2017-09-30T19:13:11.717Z,14.10
2017-09-30T19:18:12.776Z,17.40
2017-09-30T19:23:13.875Z,14.50
2017-09-30T19:28:15.660Z,17.30
2017-09-30T19:33:16.743Z,18.13
2017-09-30T19:38:17.825Z,13.27
2017-09-30T19:43:18.862Z,15.93
2017-09-30T19:48:19.944Z,14.07
2017-09-30T19:53:21.246Z,15.57
2017-09-30T19:58:22.521Z,15.67
2017-09-30T20:03:23.563Z,15.03
2017-09-30T20:08:25.403Z,14.67
2017-09-30T20:13:26.625Z,13.23
2017-09-30T20:18:28.012Z,14.33
2017-09-30T20:23:29.438Z,13.83
2017-09-30T20:28:30.521Z,16.77
2017-09-30T20:33:32.096Z,14.10
2017-09-30T20:38:33.162Z,14.83
2017-09-30T20:43:34.262Z,16.30
2017-09-30T20:48:35.308Z,13.57
2017-09-30T20:53:36.501Z,14.90
2017-09-30T20:58:39.271Z,13.83
2017-09-30T21:03:41.048Z,14.40
2017-09-30T21:08:43.999Z,14.00
2017-09-30T21:13:45.117Z,14.40
2017-09-30T21:18:47.962Z,13.90
2017-09-30T21:23:49.052Z,13.90
2017-09-30T21:28:50.842Z,16.13
2017-09-30T21:33:53.277Z,16.53
2017-09-30T21:38:54.310Z,14.43
2017-09-30T21:43:56.147Z,17.23
2017-09-30T21:48:57.567Z,13.30
2017-09-30T21:53:58.613Z,17.73
2017-09-30T21:59:00.442Z,13.53
2017-09-30T22:04:01.504Z,12.90
2017-09-30T22:09:02.683Z,15.53
2017-09-30T22:14:03.921Z,17.80
2017-09-30T22:19:04.957Z,14.67
2017-09-30T22:24:06.051Z,13.40
2017-09-30T22:29:07.107Z,14.67
2017-09-30T22:34:08.197Z,16.93
2017-09-30T22:39:09.975Z,15.33
2017-09-30T22:44:11.748Z,15.30
2017-09-30T22:49:13.585Z,17.33
2017-09-30T22:54:14.655Z,13.63
2017-09-30T22:59:15.721Z,12.43
2017-09-30T23:04:16.771Z,13.83
2017-09-30T23:09:17.855Z,12.33
2017-09-30T23:14:19.638Z,11.50
2017-09-30T23:19:21.426Z,13.07
2017-09-30T23:24:22.489Z,12.80
2017-09-30T23:29:23.543Z,13.20
2017-09-30T23:34:24.593Z,14.30
2017-09-30T23:39:25.733Z,13.77
2017-09-30T23:44:27.529Z,14.10
2017-09-30T23:49:28.661Z,15.07
2017-09-30T23:54:29.721Z,14.90
2017-09-30T23:59:30.757Z,14.87
